sensor_id;sensor_type;location;lat;lon;timestamp;P1;durP1;ratioP1;P2;durP2;ratioP2
11541;SDS011;5827;49.482;7.716;2022-10-16T00:00:18;1.58;;;1.00;;
11541;SDS011;5827;49.482;7.716;2022-10-16T00:02:21;2.60;;;0.95;;
11541;SDS011;5827;49.482;7.716;2022-10-16T00:04:23;2.00;;;1.10;;
11541;SDS011;5827;49.482;7.716;2022-10-16T00:06:25;2.97;;;1.17;;
11541;SDS011;5827;49.482;7.716;2022-10-16T00:08:27;2.40;;;1.00;;
11541;SDS011;5827;49.482;7.716;2022-10-16T00:10:29;1.98;;;1.10;;
11541;SDS011;5827;49.482;7.716;2022-10-16T00:12:30;3.83;;;1.10;;
11541;SDS011;5827;49.482;7.716;2022-10-16T00:14:32;3.80;;;1.20;;
11541;SDS011;5827;49.482;7.716;2022-10-16T00:16:33;1.58;;;1.10;;
11541;SDS011;5827;49.482;7.716;2022-10-16T00:18:37;4.28;;;1.35;;
11541;SDS011;5827;49.482;7.716;2022-10-16T00:20:38;1.30;;;1.08;;
11541;SDS011;5827;49.482;7.716;2022-10-16T00:22:40;2.47;;;1.13;;
11541;SDS011;5827;49.482;7.716;2022-10-16T00:24:41;3.15;;;1.05;;
11541;SDS011;5827;49.482;7.716;2022-10-16T00:26:42;2.10;;;1.20;;
11541;SDS011;5827;49.482;7.716;2022-10-16T00:28:45;3.38;;;1.17;;
11541;SDS011;5827;49.482;7.716;2022-10-16T00:30:47;3.13;;;1.02;;
11541;SDS011;5827;49.482;7.716;2022-10-16T00:32:48;3.25;;;1.10;;
11541;SDS011;5827;49.482;7.716;2022-10-16T00:34:51;4.63;;;1.23;;
11541;SDS011;5827;49.482;7.716;2022-10-16T00:36:54;3.53;;;1.10;;
11541;SDS011;5827;49.482;7.716;2022-10-16T00:38:56;1.70;;;1.10;;
11541;SDS011;5827;49.482;7.716;2022-10-16T00:41:00;1.80;;;1.10;;
11541;SDS011;5827;49.482;7.716;2022-10-16T00:43:02;2.13;;;1.02;;
11541;SDS011;5827;49.482;7.716;2022-10-16T00:45:04;4.40;;;1.27;;
11541;SDS011;5827;49.482;7.716;2022-10-16T00:47:06;3.22;;;1.30;;
11541;SDS011;5827;49.482;7.716;2022-10-16T00:49:10;1.63;;;1.10;;
11541;SDS011;5827;49.482;7.716;2022-10-16T00:51:15;2.67;;;1.10;;
11541;SDS011;5827;49.482;7.716;2022-10-16T00:53:18;3.38;;;1.27;;
11541;SDS011;5827;49.482;7.716;2022-10-16T00:55:20;6.50;;;1.30;;
11541;SDS011;5827;49.482;7.716;2022-10-16T00:57:22;3.75;;;1.40;;
11541;SDS011;5827;49.482;7.716;2022-10-16T00:59:25;4.15;;;1.33;;
11541;SDS011;5827;49.482;7.716;2022-10-16T01:01:29;2.33;;;1.30;;
11541;SDS011;5827;49.482;7.716;2022-10-16T01:03:31;3.38;;;1.20;;
11541;SDS011;5827;49.482;7.716;2022-10-16T01:05:35;3.53;;;1.30;;
11541;SDS011;5827;49.482;7.716;2022-10-16T01:07:49;4.93;;;1.50;;
11541;SDS011;5827;49.482;7.716;2022-10-16T01:10:07;2.90;;;1.30;;
11541;SDS011;5827;49.482;7.716;2022-10-16T01:12:18;3.45;;;1.10;;
11541;SDS011;5827;49.482;7.716;2022-10-16T01:14:32;2.58;;;1.17;;
11541;SDS011;5827;49.482;7.716;2022-10-16T01:16:43;4.85;;;1.13;;
11541;SDS011;5827;49.482;7.716;2022-10-16T01:18:51;2.28;;;1.23;;
11541;SDS011;5827;49.482;7.716;2022-10-16T01:20:58;3.90;;;1.30;;
11541;SDS011;5827;49.482;7.716;2022-10-16T01:23:14;2.70;;;1.40;;
11541;SDS011;5827;49.482;7.716;2022-10-16T01:25:24;3.97;;;1.25;;
11541;SDS011;5827;49.482;7.716;2022-10-16T01:27:31;3.67;;;1.35;;
11541;SDS011;5827;49.482;7.716;2022-10-16T01:29:37;3.25;;;1.25;;
11541;SDS011;5827;49.482;7.716;2022-10-16T01:31:47;4.25;;;1.30;;
11541;SDS011;5827;49.482;7.716;2022-10-16T01:33:54;2.40;;;1.10;;
11541;SDS011;5827;49.482;7.716;2022-10-16T01:36:02;4.38;;;1.30;;
11541;SDS011;5827;49.482;7.716;2022-10-16T01:38:08;3.42;;;1.20;;
11541;SDS011;5827;49.482;7.716;2022-10-16T01:40:15;3.87;;;1.27;;
11541;SDS011;5827;49.482;7.716;2022-10-16T01:42:20;4.93;;;1.40;;
11541;SDS011;5827;49.482;7.716;2022-10-16T01:44:28;1.80;;;1.10;;
11541;SDS011;5827;49.482;7.716;2022-10-16T01:46:32;4.87;;;1.23;;
11541;SDS011;5827;49.482;7.716;2022-10-16T01:48:35;2.47;;;1.40;;
11541;SDS011;5827;49.482;7.716;2022-10-16T01:50:38;5.65;;;1.80;;
11541;SDS011;5827;49.482;7.716;2022-10-16T01:52:43;2.20;;;1.60;;
11541;SDS011;5827;49.482;7.716;2022-10-16T01:54:49;3.08;;;1.50;;
11541;SDS011;5827;49.482;7.716;2022-10-16T01:56:53;4.47;;;1.53;;
11541;SDS011;5827;49.482;7.716;2022-10-16T01:58:58;3.90;;;1.58;;
11541;SDS011;5827;49.482;7.716;2022-10-16T02:01:07;2.40;;;1.43;;
11541;SDS011;5827;49.482;7.716;2022-10-16T02:03:12;5.47;;;1.83;;
11541;SDS011;5827;49.482;7.716;2022-10-16T02:05:16;4.38;;;1.90;;
11541;SDS011;5827;49.482;7.716;2022-10-16T02:07:21;5.00;;;1.77;;
11541;SDS011;5827;49.482;7.716;2022-10-16T02:09:23;5.30;;;1.70;;
11541;SDS011;5827;49.482;7.716;2022-10-16T02:11:25;1.83;;;1.60;;
11541;SDS011;5827;49.482;7.716;2022-10-16T02:13:28;4.03;;;1.58;;
11541;SDS011;5827;49.482;7.716;2022-10-16T02:15:32;2.63;;;1.65;;
11541;SDS011;5827;49.482;7.716;2022-10-16T02:17:35;2.35;;;1.80;;
11541;SDS011;5827;49.482;7.716;2022-10-16T02:19:37;1.88;;;1.73;;
11541;SDS011;5827;49.482;7.716;2022-10-16T02:21:39;1.85;;;1.75;;
11541;SDS011;5827;49.482;7.716;2022-10-16T02:23:48;3.47;;;1.70;;
11541;SDS011;5827;49.482;7.716;2022-10-16T02:25:55;3.50;;;1.88;;
11541;SDS011;5827;49.482;7.716;2022-10-16T02:28:00;7.43;;;2.17;;
11541;SDS011;5827;49.482;7.716;2022-10-16T02:30:08;3.78;;;1.77;;
11541;SDS011;5827;49.482;7.716;2022-10-16T02:32:16;3.67;;;2.00;;
11541;SDS011;5827;49.482;7.716;2022-10-16T02:34:25;3.47;;;2.20;;
11541;SDS011;5827;49.482;7.716;2022-10-16T02:36:30;5.47;;;2.28;;
11541;SDS011;5827;49.482;7.716;2022-10-16T02:38:33;3.80;;;2.40;;
11541;SDS011;5827;49.482;7.716;2022-10-16T02:40:36;5.10;;;2.50;;
11541;SDS011;5827;49.482;7.716;2022-10-16T02:42:39;4.15;;;2.25;;
11541;SDS011;5827;49.482;7.716;2022-10-16T02:44:41;2.13;;;1.90;;
11541;SDS011;5827;49.482;7.716;2022-10-16T02:46:43;4.22;;;2.40;;
11541;SDS011;5827;49.482;7.716;2022-10-16T02:48:44;3.93;;;2.60;;
11541;SDS011;5827;49.482;7.716;2022-10-16T02:50:47;4.72;;;2.40;;
11541;SDS011;5827;49.482;7.716;2022-10-16T02:52:49;4.10;;;2.50;;
11541;SDS011;5827;49.482;7.716;2022-10-16T02:54:50;6.67;;;2.70;;
11541;SDS011;5827;49.482;7.716;2022-10-16T02:56:51;4.75;;;2.40;;
11541;SDS011;5827;49.482;7.716;2022-10-16T02:58:53;3.67;;;2.60;;
11541;SDS011;5827;49.482;7.716;2022-10-16T03:00:54;5.35;;;2.33;;
11541;SDS011;5827;49.482;7.716;2022-10-16T03:02:56;4.03;;;2.40;;
11541;SDS011;5827;49.482;7.716;2022-10-16T03:04:58;4.38;;;2.30;;
11541;SDS011;5827;49.482;7.716;2022-10-16T03:07:01;4.63;;;2.20;;
11541;SDS011;5827;49.482;7.716;2022-10-16T03:09:02;4.45;;;2.40;;
11541;SDS011;5827;49.482;7.716;2022-10-16T03:11:04;5.60;;;2.40;;
11541;SDS011;5827;49.482;7.716;2022-10-16T03:13:06;6.32;;;3.00;;
11541;SDS011;5827;49.482;7.716;2022-10-16T03:15:07;3.58;;;2.63;;
11541;SDS011;5827;49.482;7.716;2022-10-16T03:17:09;7.05;;;3.13;;
11541;SDS011;5827;49.482;7.716;2022-10-16T03:19:11;5.32;;;2.95;;
11541;SDS011;5827;49.482;7.716;2022-10-16T03:21:12;6.93;;;2.97;;
11541;SDS011;5827;49.482;7.716;2022-10-16T03:23:15;6.28;;;3.30;;
11541;SDS011;5827;49.482;7.716;2022-10-16T03:25:17;4.00;;;3.15;;
11541;SDS011;5827;49.482;7.716;2022-10-16T03:27:18;5.35;;;3.30;;
11541;SDS011;5827;49.482;7.716;2022-10-16T03:29:20;7.10;;;4.47;;
11541;SDS011;5827;49.482;7.716;2022-10-16T03:31:21;6.70;;;4.20;;
11541;SDS011;5827;49.482;7.716;2022-10-16T03:33:23;4.88;;;3.63;;
11541;SDS011;5827;49.482;7.716;2022-10-16T03:35:24;6.70;;;3.53;;
11541;SDS011;5827;49.482;7.716;2022-10-16T03:37:26;8.25;;;3.72;;
11541;SDS011;5827;49.482;7.716;2022-10-16T03:39:29;3.90;;;3.40;;
11541;SDS011;5827;49.482;7.716;2022-10-16T03:41:30;5.07;;;3.20;;
11541;SDS011;5827;49.482;7.716;2022-10-16T03:43:33;3.65;;;3.10;;
11541;SDS011;5827;49.482;7.716;2022-10-16T03:45:34;4.22;;;3.08;;
11541;SDS011;5827;49.482;7.716;2022-10-16T03:47:36;4.60;;;3.20;;
11541;SDS011;5827;49.482;7.716;2022-10-16T03:49:38;7.50;;;3.75;;
11541;SDS011;5827;49.482;7.716;2022-10-16T03:51:39;5.90;;;4.00;;
11541;SDS011;5827;49.482;7.716;2022-10-16T03:53:41;6.10;;;3.83;;
11541;SDS011;5827;49.482;7.716;2022-10-16T03:55:44;6.47;;;3.67;;
11541;SDS011;5827;49.482;7.716;2022-10-16T03:57:45;4.80;;;3.35;;
11541;SDS011;5827;49.482;7.716;2022-10-16T03:59:47;5.15;;;3.70;;
11541;SDS011;5827;49.482;7.716;2022-10-16T04:01:49;4.43;;;3.42;;
11541;SDS011;5827;49.482;7.716;2022-10-16T04:03:50;4.47;;;3.10;;
11541;SDS011;5827;49.482;7.716;2022-10-16T04:05:51;5.33;;;2.93;;
11541;SDS011;5827;49.482;7.716;2022-10-16T04:07:53;4.30;;;2.92;;
11541;SDS011;5827;49.482;7.716;2022-10-16T04:09:55;4.45;;;2.80;;
11541;SDS011;5827;49.482;7.716;2022-10-16T04:12:00;5.47;;;2.50;;
11541;SDS011;5827;49.482;7.716;2022-10-16T04:14:01;7.20;;;2.65;;
11541;SDS011;5827;49.482;7.716;2022-10-16T04:16:03;4.93;;;2.15;;
11541;SDS011;5827;49.482;7.716;2022-10-16T04:18:05;4.13;;;2.20;;
11541;SDS011;5827;49.482;7.716;2022-10-16T04:20:07;6.75;;;2.08;;
11541;SDS011;5827;49.482;7.716;2022-10-16T04:22:09;3.50;;;1.63;;
11541;SDS011;5827;49.482;7.716;2022-10-16T04:24:10;4.50;;;1.50;;
11541;SDS011;5827;49.482;7.716;2022-10-16T04:26:12;5.47;;;1.90;;
11541;SDS011;5827;49.482;7.716;2022-10-16T04:28:15;4.05;;;1.42;;
11541;SDS011;5827;49.482;7.716;2022-10-16T04:30:16;2.53;;;1.65;;
11541;SDS011;5827;49.482;7.716;2022-10-16T04:32:18;4.88;;;1.30;;
11541;SDS011;5827;49.482;7.716;2022-10-16T04:34:19;2.40;;;1.50;;
11541;SDS011;5827;49.482;7.716;2022-10-16T04:36:21;4.28;;;1.48;;
11541;SDS011;5827;49.482;7.716;2022-10-16T04:38:22;2.88;;;1.20;;
11541;SDS011;5827;49.482;7.716;2022-10-16T04:40:24;2.53;;;1.33;;
11541;SDS011;5827;49.482;7.716;2022-10-16T04:42:26;4.40;;;1.40;;
11541;SDS011;5827;49.482;7.716;2022-10-16T04:44:28;5.00;;;1.55;;
11541;SDS011;5827;49.482;7.716;2022-10-16T04:46:30;3.80;;;1.40;;
11541;SDS011;5827;49.482;7.716;2022-10-16T04:48:32;3.23;;;1.20;;
11541;SDS011;5827;49.482;7.716;2022-10-16T04:50:33;3.97;;;1.30;;
11541;SDS011;5827;49.482;7.716;2022-10-16T04:52:35;5.50;;;1.48;;
11541;SDS011;5827;49.482;7.716;2022-10-16T04:54:36;3.80;;;1.30;;
11541;SDS011;5827;49.482;7.716;2022-10-16T04:56:38;5.55;;;1.20;;
11541;SDS011;5827;49.482;7.716;2022-10-16T04:58:46;3.25;;;1.13;;
11541;SDS011;5827;49.482;7.716;2022-10-16T05:00:49;3.65;;;1.20;;
11541;SDS011;5827;49.482;7.716;2022-10-16T05:02:51;3.00;;;1.33;;
11541;SDS011;5827;49.482;7.716;2022-10-16T05:04:52;3.10;;;1.20;;
11541;SDS011;5827;49.482;7.716;2022-10-16T05:06:53;4.22;;;1.30;;
11541;SDS011;5827;49.482;7.716;2022-10-16T05:08:55;4.83;;;1.40;;
11541;SDS011;5827;49.482;7.716;2022-10-16T05:10:56;4.53;;;1.42;;
11541;SDS011;5827;49.482;7.716;2022-10-16T05:12:58;3.27;;;1.20;;
11541;SDS011;5827;49.482;7.716;2022-10-16T05:14:59;1.95;;;1.33;;
11541;SDS011;5827;49.482;7.716;2022-10-16T05:17:02;2.70;;;1.50;;
11541;SDS011;5827;49.482;7.716;2022-10-16T05:19:04;2.10;;;1.20;;
11541;SDS011;5827;49.482;7.716;2022-10-16T05:21:05;2.60;;;1.30;;
11541;SDS011;5827;49.482;7.716;2022-10-16T05:23:07;3.70;;;1.23;;
11541;SDS011;5827;49.482;7.716;2022-10-16T05:25:10;4.55;;;1.38;;
11541;SDS011;5827;49.482;7.716;2022-10-16T05:27:11;3.30;;;1.48;;
11541;SDS011;5827;49.482;7.716;2022-10-16T05:29:18;3.38;;;1.27;;
11541;SDS011;5827;49.482;7.716;2022-10-16T05:31:20;3.17;;;1.40;;
11541;SDS011;5827;49.482;7.716;2022-10-16T05:33:23;2.72;;;1.27;;
11541;SDS011;5827;49.482;7.716;2022-10-16T05:35:26;3.60;;;1.45;;
11541;SDS011;5827;49.482;7.716;2022-10-16T05:37:27;8.93;;;1.85;;
11541;SDS011;5827;49.482;7.716;2022-10-16T05:39:29;5.68;;;1.85;;
11541;SDS011;5827;49.482;7.716;2022-10-16T05:41:30;3.58;;;1.55;;
11541;SDS011;5827;49.482;7.716;2022-10-16T05:43:32;3.70;;;1.40;;
11541;SDS011;5827;49.482;7.716;2022-10-16T05:45:33;3.00;;;1.30;;
11541;SDS011;5827;49.482;7.716;2022-10-16T05:47:35;4.32;;;1.40;;
11541;SDS011;5827;49.482;7.716;2022-10-16T05:49:38;4.68;;;1.77;;
11541;SDS011;5827;49.482;7.716;2022-10-16T05:51:39;5.25;;;1.52;;
11541;SDS011;5827;49.482;7.716;2022-10-16T05:53:41;2.63;;;1.25;;
11541;SDS011;5827;49.482;7.716;2022-10-16T05:55:42;4.45;;;1.42;;
11541;SDS011;5827;49.482;7.716;2022-10-16T05:57:44;4.67;;;1.73;;
11541;SDS011;5827;49.482;7.716;2022-10-16T05:59:45;3.97;;;2.20;;
11541;SDS011;5827;49.482;7.716;2022-10-16T06:01:47;3.43;;;1.80;;
11541;SDS011;5827;49.482;7.716;2022-10-16T06:03:49;3.03;;;1.80;;
11541;SDS011;5827;49.482;7.716;2022-10-16T06:05:52;3.20;;;1.40;;
11541;SDS011;5827;49.482;7.716;2022-10-16T06:07:54;4.80;;;1.60;;
11541;SDS011;5827;49.482;7.716;2022-10-16T06:09:55;2.88;;;1.70;;
11541;SDS011;5827;49.482;7.716;2022-10-16T06:11:57;4.75;;;1.73;;
11541;SDS011;5827;49.482;7.716;2022-10-16T06:13:59;2.90;;;1.52;;
11541;SDS011;5827;49.482;7.716;2022-10-16T06:16:03;2.63;;;1.40;;
11541;SDS011;5827;49.482;7.716;2022-10-16T06:18:04;4.82;;;1.50;;
11541;SDS011;5827;49.482;7.716;2022-10-16T06:20:06;3.22;;;1.50;;
11541;SDS011;5827;49.482;7.716;2022-10-16T06:22:09;5.25;;;1.45;;
11541;SDS011;5827;49.482;7.716;2022-10-16T06:24:11;3.75;;;1.58;;
11541;SDS011;5827;49.482;7.716;2022-10-16T06:26:13;7.55;;;1.50;;
11541;SDS011;5827;49.482;7.716;2022-10-16T06:28:16;4.53;;;1.70;;
11541;SDS011;5827;49.482;7.716;2022-10-16T06:30:18;5.22;;;1.70;;
11541;SDS011;5827;49.482;7.716;2022-10-16T06:32:19;2.88;;;1.50;;
11541;SDS011;5827;49.482;7.716;2022-10-16T06:34:21;4.57;;;1.80;;
11541;SDS011;5827;49.482;7.716;2022-10-16T06:36:23;3.05;;;1.50;;
11541;SDS011;5827;49.482;7.716;2022-10-16T06:38:26;1.77;;;1.47;;
11541;SDS011;5827;49.482;7.716;2022-10-16T06:40:28;4.88;;;1.70;;
11541;SDS011;5827;49.482;7.716;2022-10-16T06:42:30;5.03;;;1.67;;
11541;SDS011;5827;49.482;7.716;2022-10-16T06:44:31;6.90;;;1.60;;
11541;SDS011;5827;49.482;7.716;2022-10-16T06:46:33;2.60;;;1.50;;
11541;SDS011;5827;49.482;7.716;2022-10-16T06:48:35;3.30;;;1.50;;
11541;SDS011;5827;49.482;7.716;2022-10-16T06:50:37;4.15;;;2.00;;
11541;SDS011;5827;49.482;7.716;2022-10-16T06:52:39;4.50;;;2.20;;
11541;SDS011;5827;49.482;7.716;2022-10-16T06:54:41;3.40;;;2.00;;
11541;SDS011;5827;49.482;7.716;2022-10-16T06:56:43;3.67;;;2.30;;
11541;SDS011;5827;49.482;7.716;2022-10-16T06:58:45;3.15;;;2.40;;
11541;SDS011;5827;49.482;7.716;2022-10-16T07:00:47;5.80;;;2.35;;
11541;SDS011;5827;49.482;7.716;2022-10-16T07:02:49;4.13;;;2.30;;
11541;SDS011;5827;49.482;7.716;2022-10-16T07:04:50;5.10;;;2.70;;
11541;SDS011;5827;49.482;7.716;2022-10-16T07:06:52;2.60;;;2.40;;
11541;SDS011;5827;49.482;7.716;2022-10-16T07:08:53;4.25;;;2.60;;
11541;SDS011;5827;49.482;7.716;2022-10-16T07:11:00;3.65;;;2.75;;
11541;SDS011;5827;49.482;7.716;2022-10-16T07:13:02;3.10;;;2.65;;
11541;SDS011;5827;49.482;7.716;2022-10-16T07:15:04;3.83;;;2.70;;
11541;SDS011;5827;49.482;7.716;2022-10-16T07:17:06;5.40;;;2.60;;
11541;SDS011;5827;49.482;7.716;2022-10-16T07:19:08;3.92;;;2.70;;
11541;SDS011;5827;49.482;7.716;2022-10-16T07:21:12;4.47;;;2.83;;
11541;SDS011;5827;49.482;7.716;2022-10-16T07:23:15;3.85;;;2.75;;
11541;SDS011;5827;49.482;7.716;2022-10-16T07:25:17;5.60;;;2.92;;
11541;SDS011;5827;49.482;7.716;2022-10-16T07:27:20;5.30;;;3.42;;
11541;SDS011;5827;49.482;7.716;2022-10-16T07:29:23;4.75;;;4.30;;
11541;SDS011;5827;49.482;7.716;2022-10-16T07:31:25;5.22;;;3.78;;
11541;SDS011;5827;49.482;7.716;2022-10-16T07:33:27;5.18;;;3.10;;
11541;SDS011;5827;49.482;7.716;2022-10-16T07:35:29;6.20;;;3.45;;
11541;SDS011;5827;49.482;7.716;2022-10-16T07:37:30;4.45;;;3.00;;
11541;SDS011;5827;49.482;7.716;2022-10-16T07:39:32;7.72;;;3.70;;
11541;SDS011;5827;49.482;7.716;2022-10-16T07:41:33;5.13;;;3.42;;
11541;SDS011;5827;49.482;7.716;2022-10-16T07:43:38;7.15;;;3.28;;
11541;SDS011;5827;49.482;7.716;2022-10-16T07:45:46;5.88;;;3.83;;
11541;SDS011;5827;49.482;7.716;2022-10-16T07:47:49;5.90;;;3.70;;
11541;SDS011;5827;49.482;7.716;2022-10-16T07:49:50;8.43;;;3.83;;
11541;SDS011;5827;49.482;7.716;2022-10-16T07:51:52;8.55;;;3.80;;
11541;SDS011;5827;49.482;7.716;2022-10-16T07:53:53;6.70;;;3.70;;
11541;SDS011;5827;49.482;7.716;2022-10-16T07:55:56;6.95;;;3.85;;
11541;SDS011;5827;49.482;7.716;2022-10-16T07:57:59;4.88;;;4.00;;
11541;SDS011;5827;49.482;7.716;2022-10-16T08:00:03;4.33;;;3.93;;
11541;SDS011;5827;49.482;7.716;2022-10-16T08:02:05;6.55;;;4.20;;
11541;SDS011;5827;49.482;7.716;2022-10-16T08:04:06;4.15;;;3.75;;
11541;SDS011;5827;49.482;7.716;2022-10-16T08:06:08;5.03;;;3.28;;
11541;SDS011;5827;49.482;7.716;2022-10-16T08:08:11;3.58;;;3.13;;
11541;SDS011;5827;49.482;7.716;2022-10-16T08:10:15;4.07;;;3.00;;
11541;SDS011;5827;49.482;7.716;2022-10-16T08:12:18;4.97;;;2.70;;
11541;SDS011;5827;49.482;7.716;2022-10-16T08:14:19;5.15;;;2.85;;
11541;SDS011;5827;49.482;7.716;2022-10-16T08:16:22;3.00;;;2.70;;
11541;SDS011;5827;49.482;7.716;2022-10-16T08:18:24;3.35;;;2.80;;
11541;SDS011;5827;49.482;7.716;2022-10-16T08:20:26;6.78;;;3.67;;
11541;SDS011;5827;49.482;7.716;2022-10-16T08:22:28;5.35;;;3.40;;
11541;SDS011;5827;49.482;7.716;2022-10-16T08:24:29;6.10;;;3.80;;
11541;SDS011;5827;49.482;7.716;2022-10-16T08:26:32;6.25;;;3.80;;
11541;SDS011;5827;49.482;7.716;2022-10-16T08:28:34;5.00;;;3.60;;
11541;SDS011;5827;49.482;7.716;2022-10-16T08:30:36;5.70;;;3.60;;
11541;SDS011;5827;49.482;7.716;2022-10-16T08:32:39;4.28;;;3.70;;
11541;SDS011;5827;49.482;7.716;2022-10-16T08:34:41;7.28;;;4.90;;
11541;SDS011;5827;49.482;7.716;2022-10-16T08:36:42;4.70;;;3.80;;
11541;SDS011;5827;49.482;7.716;2022-10-16T08:38:46;3.70;;;3.40;;
11541;SDS011;5827;49.482;7.716;2022-10-16T08:40:49;3.92;;;3.53;;
11541;SDS011;5827;49.482;7.716;2022-10-16T08:42:53;3.92;;;3.63;;
11541;SDS011;5827;49.482;7.716;2022-10-16T08:45:08;3.97;;;3.67;;
11541;SDS011;5827;49.482;7.716;2022-10-16T08:47:21;4.80;;;3.80;;
11541;SDS011;5827;49.482;7.716;2022-10-16T08:49:27;5.75;;;4.60;;
11541;SDS011;5827;49.482;7.716;2022-10-16T08:51:32;4.80;;;4.40;;
11541;SDS011;5827;49.482;7.716;2022-10-16T08:53:38;5.47;;;4.10;;
11541;SDS011;5827;49.482;7.716;2022-10-16T08:55:45;5.05;;;4.30;;
11541;SDS011;5827;49.482;7.716;2022-10-16T08:57:50;5.22;;;4.15;;
11541;SDS011;5827;49.482;7.716;2022-10-16T08:59:51;4.72;;;4.07;;
11541;SDS011;5827;49.482;7.716;2022-10-16T09:01:55;4.78;;;4.05;;
11541;SDS011;5827;49.482;7.716;2022-10-16T09:04:12;4.07;;;3.75;;
11541;SDS011;5827;49.482;7.716;2022-10-16T09:06:38;3.97;;;3.67;;
11541;SDS011;5827;49.482;7.716;2022-10-16T09:08:47;3.90;;;3.50;;
11541;SDS011;5827;49.482;7.716;2022-10-16T09:11:02;4.43;;;3.67;;
11541;SDS011;5827;49.482;7.716;2022-10-16T09:13:11;4.43;;;3.70;;
11541;SDS011;5827;49.482;7.716;2022-10-16T09:15:22;4.35;;;3.63;;
11541;SDS011;5827;49.482;7.716;2022-10-16T09:17:32;3.90;;;3.10;;
11541;SDS011;5827;49.482;7.716;2022-10-16T09:19:43;3.50;;;3.13;;
11541;SDS011;5827;49.482;7.716;2022-10-16T09:21:54;4.60;;;3.10;;
11541;SDS011;5827;49.482;7.716;2022-10-16T09:23:57;3.20;;;2.90;;
11541;SDS011;5827;49.482;7.716;2022-10-16T09:26:00;4.47;;;2.80;;
11541;SDS011;5827;49.482;7.716;2022-10-16T09:28:03;4.93;;;2.95;;
11541;SDS011;5827;49.482;7.716;2022-10-16T09:30:10;2.90;;;2.70;;
11541;SDS011;5827;49.482;7.716;2022-10-16T09:32:14;4.75;;;2.65;;
11541;SDS011;5827;49.482;7.716;2022-10-16T09:34:20;3.80;;;2.60;;
11541;SDS011;5827;49.482;7.716;2022-10-16T09:36:28;3.55;;;2.47;;
11541;SDS011;5827;49.482;7.716;2022-10-16T09:38:38;5.38;;;2.50;;
11541;SDS011;5827;49.482;7.716;2022-10-16T09:40:39;3.65;;;2.28;;
11541;SDS011;5827;49.482;7.716;2022-10-16T09:42:43;2.42;;;2.15;;
11541;SDS011;5827;49.482;7.716;2022-10-16T09:44:47;5.33;;;2.53;;
11541;SDS011;5827;49.482;7.716;2022-10-16T09:47:00;2.72;;;2.22;;
11541;SDS011;5827;49.482;7.716;2022-10-16T09:49:02;4.20;;;2.40;;
11541;SDS011;5827;49.482;7.716;2022-10-16T09:51:06;2.63;;;2.28;;
11541;SDS011;5827;49.482;7.716;2022-10-16T09:53:17;4.22;;;2.45;;
11541;SDS011;5827;49.482;7.716;2022-10-16T09:55:23;3.47;;;2.40;;
11541;SDS011;5827;49.482;7.716;2022-10-16T09:57:25;5.65;;;2.50;;
11541;SDS011;5827;49.482;7.716;2022-10-16T09:59:27;3.88;;;2.38;;
11541;SDS011;5827;49.482;7.716;2022-10-16T10:01:31;2.60;;;2.30;;
11541;SDS011;5827;49.482;7.716;2022-10-16T10:03:38;5.30;;;2.60;;
11541;SDS011;5827;49.482;7.716;2022-10-16T10:05:42;2.97;;;2.50;;
11541;SDS011;5827;49.482;7.716;2022-10-16T10:07:54;3.25;;;2.22;;
11541;SDS011;5827;49.482;7.716;2022-10-16T10:09:58;3.50;;;2.72;;
11541;SDS011;5827;49.482;7.716;2022-10-16T10:12:01;4.10;;;2.40;;
11541;SDS011;5827;49.482;7.716;2022-10-16T10:14:04;3.33;;;2.37;;
11541;SDS011;5827;49.482;7.716;2022-10-16T10:16:06;4.10;;;2.35;;
11541;SDS011;5827;49.482;7.716;2022-10-16T10:18:15;4.07;;;2.38;;
11541;SDS011;5827;49.482;7.716;2022-10-16T10:20:25;5.13;;;2.65;;
11541;SDS011;5827;49.482;7.716;2022-10-16T10:22:30;4.90;;;2.58;;
11541;SDS011;5827;49.482;7.716;2022-10-16T10:24:32;5.47;;;2.40;;
11541;SDS011;5827;49.482;7.716;2022-10-16T10:26:34;3.90;;;2.50;;
11541;SDS011;5827;49.482;7.716;2022-10-16T10:28:49;3.80;;;2.50;;
11541;SDS011;5827;49.482;7.716;2022-10-16T10:31:01;5.38;;;2.65;;
11541;SDS011;5827;49.482;7.716;2022-10-16T10:33:17;4.63;;;2.70;;
11541;SDS011;5827;49.482;7.716;2022-10-16T10:35:25;3.92;;;2.38;;
11541;SDS011;5827;49.482;7.716;2022-10-16T10:37:37;4.18;;;2.45;;
11541;SDS011;5827;49.482;7.716;2022-10-16T10:39:53;4.80;;;2.50;;
11541;SDS011;5827;49.482;7.716;2022-10-16T10:42:11;4.65;;;2.60;;
11541;SDS011;5827;49.482;7.716;2022-10-16T10:44:27;3.72;;;2.50;;
11541;SDS011;5827;49.482;7.716;2022-10-16T10:46:41;5.63;;;2.72;;
11541;SDS011;5827;49.482;7.716;2022-10-16T10:48:54;6.22;;;2.72;;
11541;SDS011;5827;49.482;7.716;2022-10-16T10:51:08;5.55;;;2.70;;
11541;SDS011;5827;49.482;7.716;2022-10-16T10:53:18;4.43;;;2.47;;
11541;SDS011;5827;49.482;7.716;2022-10-16T10:55:31;5.05;;;2.60;;
11541;SDS011;5827;49.482;7.716;2022-10-16T10:57:41;6.47;;;2.80;;
11541;SDS011;5827;49.482;7.716;2022-10-16T11:00:10;5.18;;;2.90;;
11541;SDS011;5827;49.482;7.716;2022-10-16T11:02:22;4.70;;;2.60;;
11541;SDS011;5827;49.482;7.716;2022-10-16T11:04:34;4.63;;;2.53;;
11541;SDS011;5827;49.482;7.716;2022-10-16T11:06:48;3.85;;;2.67;;
11541;SDS011;5827;49.482;7.716;2022-10-16T11:08:53;5.53;;;2.85;;
11541;SDS011;5827;49.482;7.716;2022-10-16T11:11:01;4.75;;;2.80;;
11541;SDS011;5827;49.482;7.716;2022-10-16T11:13:09;6.03;;;3.25;;
11541;SDS011;5827;49.482;7.716;2022-10-16T11:15:23;4.32;;;2.63;;
11541;SDS011;5827;49.482;7.716;2022-10-16T11:17:27;6.07;;;2.72;;
11541;SDS011;5827;49.482;7.716;2022-10-16T11:19:35;2.90;;;2.45;;
11541;SDS011;5827;49.482;7.716;2022-10-16T11:21:42;2.92;;;2.58;;
11541;SDS011;5827;49.482;7.716;2022-10-16T11:23:51;4.03;;;2.60;;
11541;SDS011;5827;49.482;7.716;2022-10-16T11:25:59;3.80;;;2.70;;
11541;SDS011;5827;49.482;7.716;2022-10-16T11:28:04;3.67;;;2.50;;
11541;SDS011;5827;49.482;7.716;2022-10-16T11:30:13;3.42;;;2.55;;
11541;SDS011;5827;49.482;7.716;2022-10-16T11:32:23;4.72;;;2.72;;
11541;SDS011;5827;49.482;7.716;2022-10-16T11:34:29;3.58;;;2.60;;
11541;SDS011;5827;49.482;7.716;2022-10-16T11:36:38;4.53;;;3.00;;
11541;SDS011;5827;49.482;7.716;2022-10-16T11:38:46;3.15;;;2.78;;
11541;SDS011;5827;49.482;7.716;2022-10-16T11:40:54;5.60;;;2.50;;
11541;SDS011;5827;49.482;7.716;2022-10-16T11:43:02;5.40;;;2.88;;
11541;SDS011;5827;49.482;7.716;2022-10-16T11:45:13;24.63;;;3.85;;
11541;SDS011;5827;49.482;7.716;2022-10-16T11:47:33;3.47;;;2.40;;
11541;SDS011;5827;49.482;7.716;2022-10-16T11:49:36;4.60;;;2.67;;
11541;SDS011;5827;49.482;7.716;2022-10-16T11:51:42;3.30;;;2.40;;
11541;SDS011;5827;49.482;7.716;2022-10-16T11:53:51;3.58;;;2.20;;
11541;SDS011;5827;49.482;7.716;2022-10-16T11:55:57;5.60;;;2.50;;
11541;SDS011;5827;49.482;7.716;2022-10-16T11:58:00;4.47;;;2.53;;
11541;SDS011;5827;49.482;7.716;2022-10-16T12:00:08;5.53;;;2.50;;
11541;SDS011;5827;49.482;7.716;2022-10-16T12:02:25;4.43;;;2.47;;
11541;SDS011;5827;49.482;7.716;2022-10-16T12:04:34;3.40;;;2.33;;
11541;SDS011;5827;49.482;7.716;2022-10-16T12:06:46;4.10;;;2.53;;
11541;SDS011;5827;49.482;7.716;2022-10-16T12:08:50;3.10;;;2.15;;
11541;SDS011;5827;49.482;7.716;2022-10-16T12:10:53;5.28;;;2.65;;
11541;SDS011;5827;49.482;7.716;2022-10-16T12:15:34;3.92;;;2.50;;
11541;SDS011;5827;49.482;7.716;2022-10-16T12:17:36;4.00;;;2.67;;
11541;SDS011;5827;49.482;7.716;2022-10-16T12:19:40;3.88;;;2.33;;
11541;SDS011;5827;49.482;7.716;2022-10-16T12:21:42;3.53;;;2.20;;
11541;SDS011;5827;49.482;7.716;2022-10-16T12:23:48;5.22;;;2.50;;
11541;SDS011;5827;49.482;7.716;2022-10-16T12:25:53;2.92;;;2.58;;
11541;SDS011;5827;49.482;7.716;2022-10-16T12:28:00;4.45;;;2.40;;
11541;SDS011;5827;49.482;7.716;2022-10-16T12:30:04;4.63;;;2.50;;
11541;SDS011;5827;49.482;7.716;2022-10-16T12:32:20;4.63;;;2.90;;
11541;SDS011;5827;49.482;7.716;2022-10-16T12:34:29;3.08;;;2.40;;
11541;SDS011;5827;49.482;7.716;2022-10-16T12:36:38;2.85;;;2.28;;
11541;SDS011;5827;49.482;7.716;2022-10-16T12:38:45;3.45;;;2.40;;
11541;SDS011;5827;49.482;7.716;2022-10-16T12:40:54;5.50;;;2.38;;
11541;SDS011;5827;49.482;7.716;2022-10-16T12:42:59;2.90;;;2.17;;